sensor_id;sensor_type;location;lat;lon;timestamp;temperature;humidity
30399;DHT22;17195;50.838;7.214;2024-02-23T00:01:05;6.70;99.90
30399;DHT22;17195;50.838;7.214;2024-02-23T00:03:31;6.60;99.90
30399;DHT22;17195;50.838;7.214;2024-02-23T00:05:58;6.50;99.90
30399;DHT22;17195;50.838;7.214;2024-02-23T00:08:24;6.40;99.90
30399;DHT22;17195;50.838;7.214;2024-02-23T00:10:49;6.20;99.90
30399;DHT22;17195;50.838;7.214;2024-02-23T00:13:15;6.10;99.90
30399;DHT22;17195;50.838;7.214;2024-02-23T00:15:41;6.00;99.90
30399;DHT22;17195;50.838;7.214;2024-02-23T00:18:06;5.90;99.90
30399;DHT22;17195;50.838;7.214;2024-02-23T00:20:33;5.80;99.90
30399;DHT22;17195;50.838;7.214;2024-02-23T00:22:59;5.70;99.90
30399;DHT22;17195;50.838;7.214;2024-02-23T00:25:24;5.70;99.90
30399;DHT22;17195;50.838;7.214;2024-02-23T00:27:51;5.70;99.90
30399;DHT22;17195;50.838;7.214;2024-02-23T00:30:17;5.80;99.90
30399;DHT22;17195;50.838;7.214;2024-02-23T00:32:42;5.80;99.90
30399;DHT22;17195;50.838;7.214;2024-02-23T00:35:08;5.70;99.90
30399;DHT22;17195;50.838;7.214;2024-02-23T00:37:33;5.70;99.90
30399;DHT22;17195;50.838;7.214;2024-02-23T00:40:04;5.70;99.90
30399;DHT22;17195;50.838;7.214;2024-02-23T00:42:30;5.70;99.90
30399;DHT22;17195;50.838;7.214;2024-02-23T00:44:56;5.70;99.90
30399;DHT22;17195;50.838;7.214;2024-02-23T00:47:22;5.80;99.90
30399;DHT22;17195;50.838;7.214;2024-02-23T00:49:47;5.80;99.90
30399;DHT22;17195;50.838;7.214;2024-02-23T00:52:13;5.80;99.90
30399;DHT22;17195;50.838;7.214;2024-02-23T00:54:38;5.90;99.90
30399;DHT22;17195;50.838;7.214;2024-02-23T00:57:04;5.90;99.90
30399;DHT22;17195;50.838;7.214;2024-02-23T00:59:29;5.80;99.90
30399;DHT22;17195;50.838;7.214;2024-02-23T01:01:55;5.70;99.90
30399;DHT22;17195;50.838;7.214;2024-02-23T01:04:21;5.70;99.90
30399;DHT22;17195;50.838;7.214;2024-02-23T01:06:46;5.60;99.90
30399;DHT22;17195;50.838;7.214;2024-02-23T01:09:12;5.50;99.90
30399;DHT22;17195;50.838;7.214;2024-02-23T01:11:38;5.40;99.90
30399;DHT22;17195;50.838;7.214;2024-02-23T01:14:04;5.40;99.90
30399;DHT22;17195;50.838;7.214;2024-02-23T01:16:31;5.30;99.90
30399;DHT22;17195;50.838;7.214;2024-02-23T01:18:57;5.30;99.90
30399;DHT22;17195;50.838;7.214;2024-02-23T01:21:23;5.30;99.90
30399;DHT22;17195;50.838;7.214;2024-02-23T01:23:49;5.30;99.90
30399;DHT22;17195;50.838;7.214;2024-02-23T01:26:14;5.20;99.90
30399;DHT22;17195;50.838;7.214;2024-02-23T01:28:40;5.20;99.90
30399;DHT22;17195;50.838;7.214;2024-02-23T01:31:09;5.20;99.90
30399;DHT22;17195;50.838;7.214;2024-02-23T01:33:36;5.20;99.90
30399;DHT22;17195;50.838;7.214;2024-02-23T01:36:04;5.20;99.90
30399;DHT22;17195;50.838;7.214;2024-02-23T01:38:30;5.10;99.90
30399;DHT22;17195;50.838;7.214;2024-02-23T01:40:58;5.20;99.90
30399;DHT22;17195;50.838;7.214;2024-02-23T01:43:23;5.20;99.90
30399;DHT22;17195;50.838;7.214;2024-02-23T01:45:49;5.20;99.90
30399;DHT22;17195;50.838;7.214;2024-02-23T01:48:15;5.20;99.90
30399;DHT22;17195;50.838;7.214;2024-02-23T01:50:42;5.20;99.90
30399;DHT22;17195;50.838;7.214;2024-02-23T01:53:09;5.20;99.90
30399;DHT22;17195;50.838;7.214;2024-02-23T01:55:36;5.10;99.90
30399;DHT22;17195;50.838;7.214;2024-02-23T01:58:03;5.10;99.90
30399;DHT22;17195;50.838;7.214;2024-02-23T02:00:29;5.10;99.90
30399;DHT22;17195;50.838;7.214;2024-02-23T02:02:55;5.10;99.90
30399;DHT22;17195;50.838;7.214;2024-02-23T02:05:21;5.10;99.90
30399;DHT22;17195;50.838;7.214;2024-02-23T02:07:47;5.10;99.90
30399;DHT22;17195;50.838;7.214;2024-02-23T02:10:16;5.10;99.90
30399;DHT22;17195;50.838;7.214;2024-02-23T02:12:42;5.00;99.90
30399;DHT22;17195;50.838;7.214;2024-02-23T02:15:08;5.10;99.90
30399;DHT22;17195;50.838;7.214;2024-02-23T02:17:34;5.10;99.90
30399;DHT22;17195;50.838;7.214;2024-02-23T02:20:02;5.10;99.90
30399;DHT22;17195;50.838;7.214;2024-02-23T02:22:31;5.00;99.90
30399;DHT22;17195;50.838;7.214;2024-02-23T02:24:57;4.90;99.90
30399;DHT22;17195;50.838;7.214;2024-02-23T02:27:22;4.90;99.90
30399;DHT22;17195;50.838;7.214;2024-02-23T02:29:50;4.90;99.90
30399;DHT22;17195;50.838;7.214;2024-02-23T02:32:16;4.90;99.90
30399;DHT22;17195;50.838;7.214;2024-02-23T02:34:42;4.90;99.90
30399;DHT22;17195;50.838;7.214;2024-02-23T02:37:08;5.00;99.90
30399;DHT22;17195;50.838;7.214;2024-02-23T02:39:33;4.90;99.90
30399;DHT22;17195;50.838;7.214;2024-02-23T02:41:59;4.80;99.90
30399;DHT22;17195;50.838;7.214;2024-02-23T02:44:25;4.80;99.90
30399;DHT22;17195;50.838;7.214;2024-02-23T02:46:56;4.80;99.90
30399;DHT22;17195;50.838;7.214;2024-02-23T02:49:21;4.80;99.90
30399;DHT22;17195;50.838;7.214;2024-02-23T02:51:47;4.80;99.90
30399;DHT22;17195;50.838;7.214;2024-02-23T02:54:12;4.80;99.90
30399;DHT22;17195;50.838;7.214;2024-02-23T02:56:42;4.80;99.90
30399;DHT22;17195;50.838;7.214;2024-02-23T02:59:08;4.80;99.90
30399;DHT22;17195;50.838;7.214;2024-02-23T03:01:34;4.70;99.90
30399;DHT22;17195;50.838;7.214;2024-02-23T03:03:59;4.70;99.90
30399;DHT22;17195;50.838;7.214;2024-02-23T03:06:25;4.60;99.90
30399;DHT22;17195;50.838;7.214;2024-02-23T03:08:50;4.60;99.90
30399;DHT22;17195;50.838;7.214;2024-02-23T03:11:16;4.60;99.90
30399;DHT22;17195;50.838;7.214;2024-02-23T03:13:42;4.60;99.90
30399;DHT22;17195;50.838;7.214;2024-02-23T03:16:17;4.60;99.90
30399;DHT22;17195;50.838;7.214;2024-02-23T03:18:43;4.70;99.90
30399;DHT22;17195;50.838;7.214;2024-02-23T03:21:08;4.70;99.90
30399;DHT22;17195;50.838;7.214;2024-02-23T03:23:35;4.60;99.90
30399;DHT22;17195;50.838;7.214;2024-02-23T03:26:01;4.60;99.90
30399;DHT22;17195;50.838;7.214;2024-02-23T03:28:26;4.50;99.90
30399;DHT22;17195;50.838;7.214;2024-02-23T03:30:52;4.40;99.90
30399;DHT22;17195;50.838;7.214;2024-02-23T03:33:18;4.50;99.90
30399;DHT22;17195;50.838;7.214;2024-02-23T03:35:43;4.50;99.90
30399;DHT22;17195;50.838;7.214;2024-02-23T03:38:09;4.50;99.90
30399;DHT22;17195;50.838;7.214;2024-02-23T03:40:34;4.50;99.90
30399;DHT22;17195;50.838;7.214;2024-02-23T03:43:01;4.60;99.90
30399;DHT22;17195;50.838;7.214;2024-02-23T03:45:27;4.50;99.90
30399;DHT22;17195;50.838;7.214;2024-02-23T03:47:53;4.40;99.90
30399;DHT22;17195;50.838;7.214;2024-02-23T03:50:18;4.40;99.90
30399;DHT22;17195;50.838;7.214;2024-02-23T03:52:44;4.40;99.90
30399;DHT22;17195;50.838;7.214;2024-02-23T03:55:10;4.50;99.90
30399;DHT22;17195;50.838;7.214;2024-02-23T03:57:35;4.60;99.90
30399;DHT22;17195;50.838;7.214;2024-02-23T04:00:01;4.60;99.90
30399;DHT22;17195;50.838;7.214;2024-02-23T04:02:26;4.70;99.90
30399;DHT22;17195;50.838;7.214;2024-02-23T04:04:52;4.80;99.90
30399;DHT22;17195;50.838;7.214;2024-02-23T04:07:17;4.90;99.90
30399;DHT22;17195;50.838;7.214;2024-02-23T04:09:43;4.90;99.90
30399;DHT22;17195;50.838;7.214;2024-02-23T04:12:08;5.00;99.90
30399;DHT22;17195;50.838;7.214;2024-02-23T04:14:34;4.90;99.90
30399;DHT22;17195;50.838;7.214;2024-02-23T04:17:02;5.10;99.90
30399;DHT22;17195;50.838;7.214;2024-02-23T04:19:28;5.10;99.90
30399;DHT22;17195;50.838;7.214;2024-02-23T04:21:53;5.00;99.90
30399;DHT22;17195;50.838;7.214;2024-02-23T04:24:20;5.00;99.90
30399;DHT22;17195;50.838;7.214;2024-02-23T04:26:45;5.00;99.90
30399;DHT22;17195;50.838;7.214;2024-02-23T04:29:11;4.90;99.90
30399;DHT22;17195;50.838;7.214;2024-02-23T04:31:37;4.90;99.90
30399;DHT22;17195;50.838;7.214;2024-02-23T04:34:03;4.70;99.90
30399;DHT22;17195;50.838;7.214;2024-02-23T04:36:29;4.70;99.90
30399;DHT22;17195;50.838;7.214;2024-02-23T04:38:54;4.70;99.90
30399;DHT22;17195;50.838;7.214;2024-02-23T04:41:20;4.60;99.90
30399;DHT22;17195;50.838;7.214;2024-02-23T04:43:49;4.60;99.90
30399;DHT22;17195;50.838;7.214;2024-02-23T04:46:15;4.60;99.90
30399;DHT22;17195;50.838;7.214;2024-02-23T04:48:41;4.50;99.90
30399;DHT22;17195;50.838;7.214;2024-02-23T04:51:07;4.60;99.90
30399;DHT22;17195;50.838;7.214;2024-02-23T04:53:38;4.60;99.90
30399;DHT22;17195;50.838;7.214;2024-02-23T04:56:04;4.70;99.90
30399;DHT22;17195;50.838;7.214;2024-02-23T04:58:30;4.70;99.90
30399;DHT22;17195;50.838;7.214;2024-02-23T05:00:55;4.70;99.90
30399;DHT22;17195;50.838;7.214;2024-02-23T05:03:21;4.70;99.90
30399;DHT22;17195;50.838;7.214;2024-02-23T05:05:47;4.80;99.90
30399;DHT22;17195;50.838;7.214;2024-02-23T05:08:13;4.70;99.90
30399;DHT22;17195;50.838;7.214;2024-02-23T05:10:39;4.70;99.90
30399;DHT22;17195;50.838;7.214;2024-02-23T05:13:04;4.60;99.90
30399;DHT22;17195;50.838;7.214;2024-02-23T05:15:30;4.60;99.90
30399;DHT22;17195;50.838;7.214;2024-02-23T05:17:55;4.50;99.90
30399;DHT22;17195;50.838;7.214;2024-02-23T05:20:21;4.40;99.90
30399;DHT22;17195;50.838;7.214;2024-02-23T05:22:47;4.30;99.90
30399;DHT22;17195;50.838;7.214;2024-02-23T05:25:13;4.30;99.90
30399;DHT22;17195;50.838;7.214;2024-02-23T05:27:39;4.20;99.90
30399;DHT22;17195;50.838;7.214;2024-02-23T05:30:05;4.20;99.90
30399;DHT22;17195;50.838;7.214;2024-02-23T05:32:32;4.20;99.90
30399;DHT22;17195;50.838;7.214;2024-02-23T05:34:57;4.10;99.90
30399;DHT22;17195;50.838;7.214;2024-02-23T05:37:23;4.00;99.90
30399;DHT22;17195;50.838;7.214;2024-02-23T05:39:49;4.00;99.90
30399;DHT22;17195;50.838;7.214;2024-02-23T05:42:14;3.90;99.90
30399;DHT22;17195;50.838;7.214;2024-02-23T05:44:43;3.90;99.90
30399;DHT22;17195;50.838;7.214;2024-02-23T05:47:09;3.80;99.90
30399;DHT22;17195;50.838;7.214;2024-02-23T05:49:35;3.70;99.90
30399;DHT22;17195;50.838;7.214;2024-02-23T05:52:00;3.70;99.90
30399;DHT22;17195;50.838;7.214;2024-02-23T05:54:26;3.80;99.90
30399;DHT22;17195;50.838;7.214;2024-02-23T05:56:52;3.90;99.90
30399;DHT22;17195;50.838;7.214;2024-02-23T05:59:17;3.80;99.90
30399;DHT22;17195;50.838;7.214;2024-02-23T06:01:43;3.80;99.90
30399;DHT22;17195;50.838;7.214;2024-02-23T06:04:09;3.70;99.90
30399;DHT22;17195;50.838;7.214;2024-02-23T06:06:34;3.70;99.90
30399;DHT22;17195;50.838;7.214;2024-02-23T06:09:00;3.70;99.90
30399;DHT22;17195;50.838;7.214;2024-02-23T06:11:26;3.60;99.90
30399;DHT22;17195;50.838;7.214;2024-02-23T06:13:51;3.70;99.90
30399;DHT22;17195;50.838;7.214;2024-02-23T06:16:17;3.70;99.90
30399;DHT22;17195;50.838;7.214;2024-02-23T06:18:42;3.60;99.90
30399;DHT22;17195;50.838;7.214;2024-02-23T06:21:12;3.70;99.90
30399;DHT22;17195;50.838;7.214;2024-02-23T06:23:39;3.70;99.90
30399;DHT22;17195;50.838;7.214;2024-02-23T06:26:05;3.70;99.90
30399;DHT22;17195;50.838;7.214;2024-02-23T06:28:30;3.70;99.90
30399;DHT22;17195;50.838;7.214;2024-02-23T06:30:56;3.70;99.90
30399;DHT22;17195;50.838;7.214;2024-02-23T06:33:21;3.80;99.90
30399;DHT22;17195;50.838;7.214;2024-02-23T06:35:47;3.90;99.90
30399;DHT22;17195;50.838;7.214;2024-02-23T06:38:12;4.00;99.90
30399;DHT22;17195;50.838;7.214;2024-02-23T06:40:38;4.10;99.90
30399;DHT22;17195;50.838;7.214;2024-02-23T06:43:03;4.20;99.90
30399;DHT22;17195;50.838;7.214;2024-02-23T06:45:29;4.40;99.90
30399;DHT22;17195;50.838;7.214;2024-02-23T06:47:54;4.40;99.90
30399;DHT22;17195;50.838;7.214;2024-02-23T06:50:20;4.50;99.90
30399;DHT22;17195;50.838;7.214;2024-02-23T06:52:47;4.50;99.90
30399;DHT22;17195;50.838;7.214;2024-02-23T06:55:13;4.60;99.90
30399;DHT22;17195;50.838;7.214;2024-02-23T06:57:39;4.60;99.90
30399;DHT22;17195;50.838;7.214;2024-02-23T07:00:05;4.70;99.90
30399;DHT22;17195;50.838;7.214;2024-02-23T07:02:32;4.70;99.90
30399;DHT22;17195;50.838;7.214;2024-02-23T07:05:02;4.90;99.90
30399;DHT22;17195;50.838;7.214;2024-02-23T07:07:30;4.90;99.90
30399;DHT22;17195;50.838;7.214;2024-02-23T07:09:56;5.00;99.90
30399;DHT22;17195;50.838;7.214;2024-02-23T07:12:21;5.00;99.90
30399;DHT22;17195;50.838;7.214;2024-02-23T07:14:48;5.00;99.90
30399;DHT22;17195;50.838;7.214;2024-02-23T07:17:17;5.10;99.90
30399;DHT22;17195;50.838;7.214;2024-02-23T07:19:42;5.10;99.90
30399;DHT22;17195;50.838;7.214;2024-02-23T07:22:08;5.20;99.90
30399;DHT22;17195;50.838;7.214;2024-02-23T07:24:33;5.20;99.90
30399;DHT22;17195;50.838;7.214;2024-02-23T07:26:59;5.40;99.90
30399;DHT22;17195;50.838;7.214;2024-02-23T07:29:24;5.40;99.90
30399;DHT22;17195;50.838;7.214;2024-02-23T07:31:50;5.40;99.90
30399;DHT22;17195;50.838;7.214;2024-02-23T07:34:15;5.40;99.90
30399;DHT22;17195;50.838;7.214;2024-02-23T07:36:41;5.40;99.90
30399;DHT22;17195;50.838;7.214;2024-02-23T07:39:08;5.50;99.90
30399;DHT22;17195;50.838;7.214;2024-02-23T07:41:34;5.60;99.90
30399;DHT22;17195;50.838;7.214;2024-02-23T07:43:59;5.70;99.90
30399;DHT22;17195;50.838;7.214;2024-02-23T07:46:25;5.70;99.90
30399;DHT22;17195;50.838;7.214;2024-02-23T07:48:50;5.80;99.90
30399;DHT22;17195;50.838;7.214;2024-02-23T07:51:16;5.80;99.90
30399;DHT22;17195;50.838;7.214;2024-02-23T07:53:41;5.90;99.90
30399;DHT22;17195;50.838;7.214;2024-02-23T07:56:10;5.90;99.90
30399;DHT22;17195;50.838;7.214;2024-02-23T07:58:36;6.10;99.90
30399;DHT22;17195;50.838;7.214;2024-02-23T08:01:01;6.10;99.90
30399;DHT22;17195;50.838;7.214;2024-02-23T08:03:27;6.10;99.90
30399;DHT22;17195;50.838;7.214;2024-02-23T08:05:52;6.20;99.90
30399;DHT22;17195;50.838;7.214;2024-02-23T08:08:18;6.30;99.90
30399;DHT22;17195;50.838;7.214;2024-02-23T08:10:44;6.30;99.90
30399;DHT22;17195;50.838;7.214;2024-02-23T08:13:09;6.40;99.90
30399;DHT22;17195;50.838;7.214;2024-02-23T08:15:36;6.50;99.90
30399;DHT22;17195;50.838;7.214;2024-02-23T08:18:02;6.60;99.90
30399;DHT22;17195;50.838;7.214;2024-02-23T08:20:27;6.70;99.90
30399;DHT22;17195;50.838;7.214;2024-02-23T08:22:53;6.80;99.90
30399;DHT22;17195;50.838;7.214;2024-02-23T08:25:18;7.00;99.90
30399;DHT22;17195;50.838;7.214;2024-02-23T08:27:44;7.20;99.90
30399;DHT22;17195;50.838;7.214;2024-02-23T08:30:09;7.30;99.90
30399;DHT22;17195;50.838;7.214;2024-02-23T08:32:36;7.40;99.90
30399;DHT22;17195;50.838;7.214;2024-02-23T08:35:02;7.40;99.90
30399;DHT22;17195;50.838;7.214;2024-02-23T08:37:28;7.50;99.90
30399;DHT22;17195;50.838;7.214;2024-02-23T08:39:53;7.60;99.90
30399;DHT22;17195;50.838;7.214;2024-02-23T08:42:19;7.70;99.90
30399;DHT22;17195;50.838;7.214;2024-02-23T08:44:45;7.80;99.90
30399;DHT22;17195;50.838;7.214;2024-02-23T08:47:10;7.70;99.90
30399;DHT22;17195;50.838;7.214;2024-02-23T08:49:36;7.70;99.90
30399;DHT22;17195;50.838;7.214;2024-02-23T08:52:02;7.70;99.90
30399;DHT22;17195;50.838;7.214;2024-02-23T08:54:29;7.80;99.90
30399;DHT22;17195;50.838;7.214;2024-02-23T08:56:54;7.90;99.90
30399;DHT22;17195;50.838;7.214;2024-02-23T08:59:20;7.90;99.90
30399;DHT22;17195;50.838;7.214;2024-02-23T09:01:45;7.90;99.90
30399;DHT22;17195;50.838;7.214;2024-02-23T09:04:12;8.00;99.90
30399;DHT22;17195;50.838;7.214;2024-02-23T09:06:38;8.00;99.90
30399;DHT22;17195;50.838;7.214;2024-02-23T09:09:03;8.00;99.90
30399;DHT22;17195;50.838;7.214;2024-02-23T09:11:29;8.00;99.90
30399;DHT22;17195;50.838;7.214;2024-02-23T09:13:55;8.00;99.90
30399;DHT22;17195;50.838;7.214;2024-02-23T09:16:21;8.00;99.90
30399;DHT22;17195;50.838;7.214;2024-02-23T09:18:50;8.00;99.90
30399;DHT22;17195;50.838;7.214;2024-02-23T09:21:15;8.00;99.90
30399;DHT22;17195;50.838;7.214;2024-02-23T09:23:41;8.00;99.90
30399;DHT22;17195;50.838;7.214;2024-02-23T09:26:10;7.80;99.90
30399;DHT22;17195;50.838;7.214;2024-02-23T09:28:38;7.80;99.90
30399;DHT22;17195;50.838;7.214;2024-02-23T09:31:06;7.80;99.90
30399;DHT22;17195;50.838;7.214;2024-02-23T09:33:32;7.90;99.90
30399;DHT22;17195;50.838;7.214;2024-02-23T09:35:57;8.00;99.90
30399;DHT22;17195;50.838;7.214;2024-02-23T09:38:24;8.00;99.90
30399;DHT22;17195;50.838;7.214;2024-02-23T09:40:51;8.10;99.90
30399;DHT22;17195;50.838;7.214;2024-02-23T09:43:17;8.20;99.90
30399;DHT22;17195;50.838;7.214;2024-02-23T09:45:44;8.30;99.90
30399;DHT22;17195;50.838;7.214;2024-02-23T09:48:10;8.50;99.90
30399;DHT22;17195;50.838;7.214;2024-02-23T09:50:37;8.60;99.90
30399;DHT22;17195;50.838;7.214;2024-02-23T09:53:04;8.60;99.90
30399;DHT22;17195;50.838;7.214;2024-02-23T09:55:34;8.50;99.90
30399;DHT22;17195;50.838;7.214;2024-02-23T09:57:59;8.50;99.90
30399;DHT22;17195;50.838;7.214;2024-02-23T10:00:25;8.60;99.90
30399;DHT22;17195;50.838;7.214;2024-02-23T10:02:53;8.70;99.90
30399;DHT22;17195;50.838;7.214;2024-02-23T10:05:22;8.70;99.90
30399;DHT22;17195;50.838;7.214;2024-02-23T10:07:48;8.90;99.90
30399;DHT22;17195;50.838;7.214;2024-02-23T10:10:14;8.90;99.90
30399;DHT22;17195;50.838;7.214;2024-02-23T10:12:39;8.90;99.90
30399;DHT22;17195;50.838;7.214;2024-02-23T10:15:05;9.00;99.90
30399;DHT22;17195;50.838;7.214;2024-02-23T10:17:31;9.00;99.90
30399;DHT22;17195;50.838;7.214;2024-02-23T10:19:58;9.20;99.90
30399;DHT22;17195;50.838;7.214;2024-02-23T10:22:24;9.30;99.90
30399;DHT22;17195;50.838;7.214;2024-02-23T10:24:51;9.30;99.90
30399;DHT22;17195;50.838;7.214;2024-02-23T10:27:17;9.20;99.90
30399;DHT22;17195;50.838;7.214;2024-02-23T10:29:42;9.20;99.90
30399;DHT22;17195;50.838;7.214;2024-02-23T10:32:14;9.20;99.90
30399;DHT22;17195;50.838;7.214;2024-02-23T10:34:42;9.20;99.90
30399;DHT22;17195;50.838;7.214;2024-02-23T10:37:08;9.10;99.90
30399;DHT22;17195;50.838;7.214;2024-02-23T10:39:36;8.90;99.90
30399;DHT22;17195;50.838;7.214;2024-02-23T10:42:03;8.80;99.90
30399;DHT22;17195;50.838;7.214;2024-02-23T10:44:30;8.80;99.90
30399;DHT22;17195;50.838;7.214;2024-02-23T10:46:56;8.80;99.90
30399;DHT22;17195;50.838;7.214;2024-02-23T10:49:24;8.80;99.90
30399;DHT22;17195;50.838;7.214;2024-02-23T10:51:52;8.80;99.90
30399;DHT22;17195;50.838;7.214;2024-02-23T10:54:21;8.80;99.90
30399;DHT22;17195;50.838;7.214;2024-02-23T10:56:49;8.90;99.90
30399;DHT22;17195;50.838;7.214;2024-02-23T10:59:15;8.80;99.90
30399;DHT22;17195;50.838;7.214;2024-02-23T11:01:47;8.90;99.90
30399;DHT22;17195;50.838;7.214;2024-02-23T11:04:17;9.20;99.90
30399;DHT22;17195;50.838;7.214;2024-02-23T11:06:56;9.40;99.90
30399;DHT22;17195;50.838;7.214;2024-02-23T11:09:31;9.50;99.90
30399;DHT22;17195;50.838;7.214;2024-02-23T11:11:58;9.60;99.90
30399;DHT22;17195;50.838;7.214;2024-02-23T11:14:37;9.50;99.90
30399;DHT22;17195;50.838;7.214;2024-02-23T11:17:04;9.30;99.90
30399;DHT22;17195;50.838;7.214;2024-02-23T11:19:37;9.20;99.90
30399;DHT22;17195;50.838;7.214;2024-02-23T11:22:04;9.30;99.90
30399;DHT22;17195;50.838;7.214;2024-02-23T11:24:30;9.20;99.90
30399;DHT22;17195;50.838;7.214;2024-02-23T11:26:57;9.20;99.90
30399;DHT22;17195;50.838;7.214;2024-02-23T11:29:26;9.10;99.90
30399;DHT22;17195;50.838;7.214;2024-02-23T11:31:53;9.20;99.90
30399;DHT22;17195;50.838;7.214;2024-02-23T11:34:22;9.30;99.90
30399;DHT22;17195;50.838;7.214;2024-02-23T11:36:51;9.50;99.90
30399;DHT22;17195;50.838;7.214;2024-02-23T11:39:19;9.60;99.90
30399;DHT22;17195;50.838;7.214;2024-02-23T11:41:48;9.60;99.90
30399;DHT22;17195;50.838;7.214;2024-02-23T11:44:15;9.70;99.90
30399;DHT22;17195;50.838;7.214;2024-02-23T11:46:43;9.70;99.90
30399;DHT22;17195;50.838;7.214;2024-02-23T11:49:08;9.80;99.90
30399;DHT22;17195;50.838;7.214;2024-02-23T11:51:34;9.70;99.90
30399;DHT22;17195;50.838;7.214;2024-02-23T11:54:00;9.60;99.90
30399;DHT22;17195;50.838;7.214;2024-02-23T11:56:26;9.30;99.90
30399;DHT22;17195;50.838;7.214;2024-02-23T11:58:53;9.20;99.90
30399;DHT22;17195;50.838;7.214;2024-02-23T12:01:19;9.20;99.90
30399;DHT22;17195;50.838;7.214;2024-02-23T12:03:44;9.30;99.90
30399;DHT22;17195;50.838;7.214;2024-02-23T12:06:11;9.20;99.90
30399;DHT22;17195;50.838;7.214;2024-02-23T12:08:37;9.30;99.90
30399;DHT22;17195;50.838;7.214;2024-02-23T12:11:05;9.30;99.90
30399;DHT22;17195;50.838;7.214;2024-02-23T12:13:33;9.30;99.90
30399;DHT22;17195;50.838;7.214;2024-02-23T12:15:59;9.30;99.90
30399;DHT22;17195;50.838;7.214;2024-02-23T12:18:25;9.40;99.90
30399;DHT22;17195;50.838;7.214;2024-02-23T12:21:04;9.50;99.90
30399;DHT22;17195;50.838;7.214;2024-02-23T12:23:40;9.60;99.90
30399;DHT22;17195;50.838;7.214;2024-02-23T12:26:06;9.50;99.90
30399;DHT22;17195;50.838;7.214;2024-02-23T12:28:32;9.60;99.90
30399;DHT22;17195;50.838;7.214;2024-02-23T12:30:59;9.80;99.90
30399;DHT22;17195;50.838;7.214;2024-02-23T12:33:31;9.70;99.90
30399;DHT22;17195;50.838;7.214;2024-02-23T12:35:58;9.80;99.90
30399;DHT22;17195;50.838;7.214;2024-02-23T12:38:24;9.80;99.90
30399;DHT22;17195;50.838;7.214;2024-02-23T12:40:50;9.70;99.90
30399;DHT22;17195;50.838;7.214;2024-02-23T12:43:16;9.70;99.90
30399;DHT22;17195;50.838;7.214;2024-02-23T12:45:42;9.60;99.90
30399;DHT22;17195;50.838;7.214;2024-02-23T12:48:09;9.40;99.90
30399;DHT22;17195;50.838;7.214;2024-02-23T12:50:34;9.30;99.90
30399;DHT22;17195;50.838;7.214;2024-02-23T12:53:00;9.30;99.90
30399;DHT22;17195;50.838;7.214;2024-02-23T12:55:26;9.20;99.90
30399;DHT22;17195;50.838;7.214;2024-02-23T12:57:52;9.10;99.90
30399;DHT22;17195;50.838;7.214;2024-02-23T13:00:17;9.10;99.90
30399;DHT22;17195;50.838;7.214;2024-02-23T13:02:43;9.10;99.90
30399;DHT22;17195;50.838;7.214;2024-02-23T13:05:09;9.20;99.90
30399;DHT22;17195;50.838;7.214;2024-02-23T13:07:34;9.30;99.90
30399;DHT22;17195;50.838;7.214;2024-02-23T13:10:00;9.40;99.90
30399;DHT22;17195;50.838;7.214;2024-02-23T13:12:25;9.40;99.90
30399;DHT22;17195;50.838;7.214;2024-02-23T13:14:51;9.50;99.90
30399;DHT22;17195;50.838;7.214;2024-02-23T13:17:17;9.50;99.90
30399;DHT22;17195;50.838;7.214;2024-02-23T13:19:43;9.70;99.90
30399;DHT22;17195;50.838;7.214;2024-02-23T13:22:09;10.00;99.90
30399;DHT22;17195;50.838;7.214;2024-02-23T13:24:34;10.10;99.90
30399;DHT22;17195;50.838;7.214;2024-02-23T13:27:00;10.10;99.90
30399;DHT22;17195;50.838;7.214;2024-02-23T13:29:26;10.10;99.90
30399;DHT22;17195;50.838;7.214;2024-02-23T13:31:51;10.20;99.90
30399;DHT22;17195;50.838;7.214;2024-02-23T13:34:17;10.40;99.90
30399;DHT22;17195;50.838;7.214;2024-02-23T13:36:44;10.70;99.90
30399;DHT22;17195;50.838;7.214;2024-02-23T13:39:09;11.00;99.90
30399;DHT22;17195;50.838;7.214;2024-02-23T13:41:35;11.20;99.90
30399;DHT22;17195;50.838;7.214;2024-02-23T13:44:01;11.70;99.90
30399;DHT22;17195;50.838;7.214;2024-02-23T13:46:26;11.90;99.90
30399;DHT22;17195;50.838;7.214;2024-02-23T13:49:03;11.90;99.90
30399;DHT22;17195;50.838;7.214;2024-02-23T13:51:29;11.90;99.90
30399;DHT22;17195;50.838;7.214;2024-02-23T13:53:55;11.90;99.90
30399;DHT22;17195;50.838;7.214;2024-02-23T13:56:21;11.70;99.90
30399;DHT22;17195;50.838;7.214;2024-02-23T13:58:46;11.50;99.90
30399;DHT22;17195;50.838;7.214;2024-02-23T14:01:13;11.20;99.90
30399;DHT22;17195;50.838;7.214;2024-02-23T14:03:39;11.10;99.90
30399;DHT22;17195;50.838;7.214;2024-02-23T14:06:04;11.30;99.90
30399;DHT22;17195;50.838;7.214;2024-02-23T14:08:30;11.40;99.90
30399;DHT22;17195;50.838;7.214;2024-02-23T14:10:56;11.70;99.90
30399;DHT22;17195;50.838;7.214;2024-02-23T14:13:22;11.90;99.90
30399;DHT22;17195;50.838;7.214;2024-02-23T14:15:48;11.90;99.90
30399;DHT22;17195;50.838;7.214;2024-02-23T14:18:14;11.70;99.90
30399;DHT22;17195;50.838;7.214;2024-02-23T14:20:39;12.00;99.90
30399;DHT22;17195;50.838;7.214;2024-02-23T14:23:05;12.00;99.90
30399;DHT22;17195;50.838;7.214;2024-02-23T14:25:31;11.80;99.90
30399;DHT22;17195;50.838;7.214;2024-02-23T14:27:56;11.50;99.90
30399;DHT22;17195;50.838;7.214;2024-02-23T14:30:22;11.50;99.90
30399;DHT22;17195;50.838;7.214;2024-02-23T14:32:48;11.60;99.90
30399;DHT22;17195;50.838;7.214;2024-02-23T14:35:13;11.80;99.90
30399;DHT22;17195;50.838;7.214;2024-02-23T14:37:39;12.10;99.90
30399;DHT22;17195;50.838;7.214;2024-02-23T14:40:06;12.30;99.90
30399;DHT22;17195;50.838;7.214;2024-02-23T14:42:31;12.40;99.90
30399;DHT22;17195;50.838;7.214;2024-02-23T14:44:57;12.50;99.90
30399;DHT22;17195;50.838;7.214;2024-02-23T14:47:22;12.50;99.90
30399;DHT22;17195;50.838;7.214;2024-02-23T14:49:48;12.40;99.90
30399;DHT22;17195;50.838;7.214;2024-02-23T14:52:15;12.30;99.90
30399;DHT22;17195;50.838;7.214;2024-02-23T14:54:41;12.30;99.90
30399;DHT22;17195;50.838;7.214;2024-02-23T14:57:07;12.40;99.90
30399;DHT22;17195;50.838;7.214;2024-02-23T14:59:33;12.40;99.90
30399;DHT22;17195;50.838;7.214;2024-02-23T15:02:05;12.40;99.90
30399;DHT22;17195;50.838;7.214;2024-02-23T15:04:32;12.20;99.90
30399;DHT22;17195;50.838;7.214;2024-02-23T15:06:57;12.10;99.90
30399;DHT22;17195;50.838;7.214;2024-02-23T15:09:23;12.00;99.90
30399;DHT22;17195;50.838;7.214;2024-02-23T15:11:48;11.80;99.90
30399;DHT22;17195;50.838;7.214;2024-02-23T15:14:14;11.80;99.90
30399;DHT22;17195;50.838;7.214;2024-02-23T15:16:41;11.80;99.90
30399;DHT22;17195;50.838;7.214;2024-02-23T15:19:06;11.70;99.90
30399;DHT22;17195;50.838;7.214;2024-02-23T15:21:32;11.60;99.90
30399;DHT22;17195;50.838;7.214;2024-02-23T15:23:57;11.40;99.90
30399;DHT22;17195;50.838;7.214;2024-02-23T15:26:23;11.40;99.90
30399;DHT22;17195;50.838;7.214;2024-02-23T15:28:49;11.30;99.90
30399;DHT22;17195;50.838;7.214;2024-02-23T15:31:14;11.30;99.90
30399;DHT22;17195;50.838;7.214;2024-02-23T15:33:40;11.30;99.90
30399;DHT22;17195;50.838;7.214;2024-02-23T15:36:06;11.20;99.90
30399;DHT22;17195;50.838;7.214;2024-02-23T15:38:34;11.10;99.90